createdAt,value
2022-08-07T00:02:36.359Z,99331.22
2022-08-07T00:07:41.753Z,99323.69
2022-08-07T00:13:00.572Z,99326.25
2022-08-07T00:18:04.804Z,99322.97
2022-08-07T00:23:08.316Z,99319.47
2022-08-07T00:28:13.105Z,99316.44
2022-08-07T00:33:21.270Z,99312.44
2022-08-07T00:38:31.613Z,99308.78
2022-08-07T00:44:01.432Z,99306.00
2022-08-07T00:49:02.081Z,99307.00
2022-08-07T00:54:05.508Z,99297.38
2022-08-07T00:59:09.868Z,99296.41
2022-08-07T01:04:21.781Z,99293.63
2022-08-07T01:10:04.658Z,99280.88
2022-08-07T01:14:57.125Z,99279.41
2022-08-07T01:20:08.203Z,99278.16
2022-08-07T01:25:54.276Z,99271.38
2022-08-07T01:30:43.669Z,99274.66
2022-08-07T01:35:54.542Z,99270.97
2022-08-07T01:41:12.436Z,99273.31
2022-08-07T01:46:31.704Z,99271.59
2022-08-07T01:52:03.157Z,99265.09
2022-08-07T01:57:06.865Z,99261.22
2022-08-07T02:03:12.565Z,99282.19
2022-08-07T02:07:51.348Z,99281.19
2022-08-07T02:13:05.667Z,99270.75
2022-08-07T02:18:17.817Z,99269.25
2022-08-07T02:23:24.088Z,99272.53
2022-08-07T02:28:30.466Z,99266.78
2022-08-07T02:33:57.186Z,99265.31
2022-08-07T02:39:09.491Z,99264.47
2022-08-07T02:44:23.684Z,99264.19
2022-08-07T02:49:57.628Z,99256.16
2022-08-07T02:54:56.386Z,99252.09
2022-08-07T03:00:10.447Z,99267.38
2022-08-07T03:05:20.720Z,99257.63
2022-08-07T03:10:26.691Z,99262.69
2022-08-07T03:15:47.626Z,99264.56
2022-08-07T03:20:55.252Z,99257.25
2022-08-07T03:26:00.893Z,99254.59
2022-08-07T03:31:24.478Z,99249.94
2022-08-07T03:36:34.554Z,99250.91
2022-08-07T03:41:42.059Z,99249.53
2022-08-07T03:47:11.343Z,99248.28
2022-08-07T03:52:22.576Z,99251.59
2022-08-07T03:58:34.730Z,99246.66
2022-08-07T04:02:56.968Z,99238.81
2022-08-07T04:08:07.924Z,99244.34
2022-08-07T04:13:16.457Z,99240.94
2022-08-07T04:18:57.688Z,99249.25
2022-08-07T04:24:05.857Z,99256.44
2022-08-07T04:29:11.138Z,99257.47
2022-08-07T04:34:16.778Z,99266.13
2022-08-07T04:39:25.797Z,99267.25
2022-08-07T04:44:30.269Z,99266.94
2022-08-07T04:49:47.602Z,99264.56
2022-08-07T04:58:24.425Z,99263.59
2022-08-07T05:00:47.418Z,99267.94
2022-08-07T05:05:57.427Z,99271.63
2022-08-07T05:11:08.246Z,99274.13
2022-08-07T05:16:15.801Z,99274.19
2022-08-07T05:21:59.923Z,99276.47
2022-08-07T05:26:53.174Z,99280.16
2022-08-07T05:31:57.348Z,99285.50
2022-08-07T05:37:07.584Z,99286.78
2022-08-07T05:42:34.531Z,99290.84
2022-08-07T05:48:01.792Z,99281.94
2022-08-07T05:53:04.137Z,99299.53
2022-08-07T05:58:11.086Z,99301.03
2022-08-07T06:03:15.449Z,99292.31
2022-08-07T06:08:30.645Z,99302.69
2022-08-07T06:14:12.256Z,99304.09
2022-08-07T06:18:59.814Z,99313.88
2022-08-07T06:24:38.312Z,99310.19
2022-08-07T06:29:29.001Z,99302.59
2022-08-07T06:34:32.614Z,99300.97
2022-08-07T06:40:12.855Z,99300.81
2022-08-07T06:45:03.597Z,99291.97
2022-08-07T06:50:08.302Z,99292.25
2022-08-07T06:55:32.304Z,99287.50
2022-08-07T07:00:46.633Z,99280.13
2022-08-07T07:06:03.018Z,99287.25
2022-08-07T07:11:13.171Z,99283.94
2022-08-07T07:16:21.409Z,99282.13
2022-08-07T07:21:40.362Z,99284.31
2022-08-07T07:26:54.329Z,99281.25
2022-08-07T07:32:03.518Z,99287.16
2022-08-07T07:37:21.838Z,99279.69
2022-08-07T07:42:34.418Z,99277.66
2022-08-07T07:47:52.082Z,99271.25
2022-08-07T07:52:57.677Z,99272.06
2022-08-07T07:58:06.923Z,99271.53
2022-08-07T08:03:16.397Z,99268.50
2022-08-07T08:08:34.463Z,99263.72
2022-08-07T08:13:53.868Z,99263.78
2022-08-07T08:19:09.897Z,99266.75
2022-08-07T08:24:45.483Z,99257.88
2022-08-07T08:29:54.538Z,99251.94
2022-08-07T08:35:00.893Z,99247.50
2022-08-07T08:40:12.276Z,99250.88
2022-08-07T08:45:26.903Z,99245.03
2022-08-07T08:50:51.629Z,99237.41
2022-08-07T08:55:59.324Z,99229.47
2022-08-07T09:01:15.188Z,99230.28
2022-08-07T09:06:33.914Z,99232.22
2022-08-07T09:11:53.204Z,99226.06
2022-08-07T09:17:11.713Z,99225.50
2022-08-07T09:24:32.442Z,99219.47
2022-08-07T09:28:02.891Z,99220.00
2022-08-07T09:38:53.882Z,99207.66
2022-08-07T09:44:06.646Z,99207.91
2022-08-07T09:50:02.566Z,99202.34
2022-08-07T09:54:56.870Z,99198.44
2022-08-07T10:00:14.739Z,99181.19
2022-08-07T10:06:00.725Z,99183.81
2022-08-07T10:11:17.159Z,99173.78
2022-08-07T10:16:51.906Z,99160.19
2022-08-07T10:22:15.939Z,99164.63
2022-08-07T10:27:45.986Z,99159.78
2022-08-07T10:34:04.894Z,99156.44
2022-08-07T10:39:01.495Z,99144.03
2022-08-07T10:44:17.075Z,99140.97
2022-08-07T10:49:49.013Z,99141.28
2022-08-07T10:55:07.898Z,99135.41
2022-08-07T11:00:39.190Z,99139.84
2022-08-07T11:05:55.205Z,99137.72
2022-08-07T11:11:07.090Z,99123.59
2022-08-07T11:16:19.498Z,99119.19
2022-08-07T11:21:31.884Z,99122.53
2022-08-07T11:26:43.445Z,99106.00
2022-08-07T11:31:56.740Z,99103.75
2022-08-07T11:37:11.823Z,99092.41
2022-08-07T11:42:20.644Z,99093.25
2022-08-07T11:47:39.185Z,99087.28
2022-08-07T11:53:09.783Z,99086.72
2022-08-07T11:58:33.139Z,99087.16
2022-08-07T12:03:52.210Z,99096.53
2022-08-07T12:09:02.765Z,99088.19
2022-08-07T12:14:12.543Z,99092.91
2022-08-07T12:19:22.499Z,99080.97
2022-08-07T12:24:37.423Z,99084.59
2022-08-07T12:29:51.734Z,99079.00
2022-08-07T12:34:57.323Z,99076.25
2022-08-07T12:40:03.450Z,99056.19
2022-08-07T12:45:19.323Z,99070.47
2022-08-07T12:50:39.923Z,99075.66
2022-08-07T12:56:03.568Z,99063.84
2022-08-07T13:01:18.400Z,99064.59
2022-08-07T13:06:36.303Z,99063.84
2022-08-07T13:12:10.133Z,99051.50
2022-08-07T13:17:40.062Z,99058.03
2022-08-07T13:22:52.643Z,99048.97
2022-08-07T13:28:13.765Z,99047.53
2022-08-07T13:34:30.795Z,99048.91
2022-08-07T13:39:02.140Z,99038.63
2022-08-07T13:44:10.404Z,99037.16
2022-08-07T13:50:33.662Z,99032.25
2022-08-07T13:54:49.236Z,99029.31
2022-08-07T13:59:55.699Z,99021.53
2022-08-07T14:05:04.432Z,99014.50
2022-08-07T14:10:21.651Z,99012.75
2022-08-07T14:15:36.476Z,98999.69
2022-08-07T14:20:54.284Z,99009.06
2022-08-07T14:26:01.664Z,99011.13
2022-08-07T14:31:05.896Z,99007.97
2022-08-07T14:36:12.432Z,98995.78
2022-08-07T14:52:25.843Z,98982.25
2022-08-07T14:57:58.085Z,98975.72
2022-08-07T15:02:59.412Z,98988.31
2022-08-07T15:08:08.897Z,98987.34
2022-08-07T15:13:18.956Z,98991.47
2022-08-07T15:18:35.750Z,98985.81
2022-08-07T15:25:16.103Z,98987.84
2022-08-07T15:34:36.132Z,98970.19
2022-08-07T15:39:57.900Z,98954.59
2022-08-07T15:45:03.813Z,98956.72
2022-08-07T15:51:00.965Z,98955.00
2022-08-07T15:55:53.770Z,98948.41
2022-08-07T16:01:13.406Z,98931.63
2022-08-07T16:06:30.607Z,98942.75
2022-08-07T16:11:58.004Z,98958.22
2022-08-07T16:18:02.819Z,98947.94
2022-08-07T16:22:54.549Z,98955.41
2022-08-07T16:30:08.898Z,98943.66
2022-08-07T16:34:03.432Z,98928.78
2022-08-07T16:39:33.826Z,98919.03
2022-08-07T16:45:15.533Z,98900.88
2022-08-07T16:50:41.674Z,98917.22
2022-08-07T16:56:03.157Z,98909.34
2022-08-07T17:01:34.690Z,98916.06
2022-08-07T17:07:03.329Z,98902.94
2022-08-07T17:12:33.766Z,98883.13
2022-08-07T17:17:46.612Z,98890.44
2022-08-07T17:23:00.778Z,98890.78
2022-08-07T17:28:17.692Z,98881.59
2022-08-07T17:33:39.115Z,98888.91
2022-08-07T17:39:01.460Z,98895.03
2022-08-07T17:44:15.606Z,98886.84
2022-08-07T17:49:45.437Z,98874.22
2022-08-07T17:55:01.338Z,98885.53
2022-08-07T18:00:11.254Z,98881.78
2022-08-07T18:06:01.689Z,98883.66
2022-08-07T18:12:08.420Z,98878.00
2022-08-07T18:16:34.084Z,98876.03
2022-08-07T18:21:58.543Z,98886.63
2022-08-07T18:27:45.434Z,98895.88
2022-08-07T18:33:17.353Z,98887.75
2022-08-07T18:38:54.851Z,98899.25
2022-08-07T18:43:58.876Z,98909.31
2022-08-07T18:50:31.269Z,98914.69
2022-08-07T18:54:50.771Z,98920.00
2022-08-07T19:00:33.383Z,98918.00
2022-08-07T19:06:02.167Z,98924.88
2022-08-07T19:11:06.839Z,98930.81
2022-08-07T19:17:04.109Z,98936.91
2022-08-07T19:22:05.212Z,98946.44
2022-08-07T19:29:03.547Z,98942.97
2022-08-07T19:32:45.292Z,98954.66
2022-08-07T19:37:58.224Z,98961.69
2022-08-07T19:43:10.570Z,98963.38
2022-08-07T19:48:19.099Z,98973.06
2022-08-07T19:54:32.313Z,98974.59
2022-08-07T19:58:55.720Z,98986.69
2022-08-07T20:04:00.894Z,98988.84
2022-08-07T20:09:06.278Z,98985.75
2022-08-07T20:14:35.184Z,98990.47
2022-08-07T20:19:48.335Z,98989.75
2022-08-07T20:25:12.461Z,98987.81
2022-08-07T20:30:22.384Z,98992.47
2022-08-07T20:35:34.234Z,98994.66
2022-08-07T20:40:42.827Z,99004.66
2022-08-07T20:46:28.243Z,99007.22
2022-08-07T20:51:26.026Z,99007.38
2022-08-07T20:56:40.799Z,99013.94
2022-08-07T21:01:55.389Z,99013.09
2022-08-07T21:07:04.444Z,99012.72
2022-08-07T21:12:29.253Z,99026.69
2022-08-07T21:18:20.243Z,99029.19
2022-08-07T21:23:08.198Z,99039.63
2022-08-07T21:28:18.817Z,99040.06
2022-08-07T21:33:44.693Z,99038.13
2022-08-07T21:38:55.511Z,99037.25
2022-08-07T21:44:07.918Z,99040.22
2022-08-07T21:49:40.765Z,99037.94
2022-08-07T21:55:02.962Z,99039.59
2022-08-07T22:00:22.195Z,99044.38
2022-08-07T22:05:45.557Z,99046.34
2022-08-07T22:10:51.972Z,99041.88
2022-08-07T22:16:43.620Z,99041.22
2022-08-07T22:22:04.297Z,99036.84
2022-08-07T22:26:57.764Z,99048.25
2022-08-07T22:32:08.662Z,99042.75
2022-08-07T22:37:20.519Z,99049.75
2022-08-07T22:42:30.428Z,99048.13
2022-08-07T22:48:00.903Z,99052.06
2022-08-07T22:54:07.672Z,99046.47
2022-08-07T22:59:46.848Z,99040.84
2022-08-07T23:06:07.065Z,99046.19
2022-08-07T23:10:42.227Z,99049.47
2022-08-07T23:16:06.483Z,99050.25
2022-08-07T23:21:30.398Z,99053.78
2022-08-07T23:27:02.434Z,99044.94
2022-08-07T23:34:19.829Z,99049.31
2022-08-07T23:38:00.983Z,99050.50
2022-08-07T23:43:25.866Z,99049.69
2022-08-07T23:49:05.142Z,99047.41
2022-08-07T23:54:19.653Z,99047.03
